createdAt,value
2022-12-31T00:00:10.162Z,11.7
2022-12-31T00:05:10.103Z,11.7
2022-12-31T00:10:10.108Z,11.8
2022-12-31T00:15:10.091Z,11.9
2022-12-31T00:20:10.093Z,11.8
2022-12-31T00:25:10.090Z,11.9
2022-12-31T00:30:10.091Z,11.9
2022-12-31T00:35:10.096Z,11.9
2022-12-31T00:40:10.091Z,12
2022-12-31T00:45:10.091Z,12
2022-12-31T00:50:10.106Z,11.9
2022-12-31T00:55:10.092Z,11.9
2022-12-31T01:00:10.094Z,12
2022-12-31T01:05:10.101Z,12
2022-12-31T01:10:10.104Z,12
2022-12-31T01:15:10.097Z,11.9
2022-12-31T01:20:10.095Z,11.9
2022-12-31T01:25:10.094Z,11.9
2022-12-31T01:30:10.080Z,11.9
2022-12-31T01:35:10.092Z,11.9
2022-12-31T01:40:10.087Z,12
2022-12-31T01:45:10.090Z,12
2022-12-31T01:50:10.076Z,12
2022-12-31T01:55:10.093Z,12.1
2022-12-31T02:00:10.076Z,12.1
2022-12-31T02:05:10.086Z,12.2
2022-12-31T02:10:10.090Z,12.1
2022-12-31T02:15:10.092Z,12.2
2022-12-31T02:20:10.091Z,12.2
2022-12-31T02:25:10.091Z,12.4
2022-12-31T02:30:10.095Z,12.5
2022-12-31T02:35:10.106Z,12.5
2022-12-31T02:40:10.077Z,12.6
2022-12-31T02:45:10.083Z,12.7
2022-12-31T02:50:10.093Z,12.8
2022-12-31T02:55:10.097Z,12.9
2022-12-31T03:00:10.078Z,12.9
2022-12-31T03:05:10.081Z,13
2022-12-31T03:10:10.083Z,13
2022-12-31T03:15:10.091Z,13.1
2022-12-31T03:20:10.083Z,13.3
2022-12-31T03:25:10.090Z,13.3
2022-12-31T03:30:10.083Z,13.3
2022-12-31T03:35:10.105Z,13.3
2022-12-31T03:40:10.104Z,13.4
2022-12-31T03:45:10.101Z,13.5
2022-12-31T03:50:10.091Z,13.6
2022-12-31T03:55:10.095Z,13.5
2022-12-31T04:00:10.096Z,13.5
2022-12-31T04:05:10.088Z,13.5
2022-12-31T04:10:10.096Z,13.3
2022-12-31T04:15:10.086Z,13.4
2022-12-31T04:20:10.088Z,13.5
2022-12-31T04:25:10.083Z,13.5
2022-12-31T04:30:10.083Z,13.6
2022-12-31T04:35:10.093Z,13.6
2022-12-31T04:40:10.099Z,13.7
2022-12-31T04:45:10.103Z,13.7
2022-12-31T04:50:10.122Z,13.7
2022-12-31T04:55:10.093Z,13.6
2022-12-31T05:00:10.081Z,13.8
2022-12-31T05:05:10.092Z,13.6
2022-12-31T05:10:10.099Z,13.8
2022-12-31T05:15:10.096Z,13.9
2022-12-31T05:20:10.095Z,13.9
2022-12-31T05:25:10.097Z,13.9
2022-12-31T05:30:10.087Z,13.9
2022-12-31T05:35:10.096Z,13.8
2022-12-31T05:40:10.092Z,14
2022-12-31T05:45:10.092Z,14
2022-12-31T05:50:10.103Z,14.2
2022-12-31T05:55:10.101Z,14.3
2022-12-31T06:00:10.115Z,14.2
2022-12-31T06:05:10.106Z,14.3
2022-12-31T06:10:10.104Z,14.3
2022-12-31T06:15:10.105Z,14.3
2022-12-31T06:20:12.999Z,14.4
2022-12-31T06:25:10.107Z,14.3
2022-12-31T06:30:10.079Z,14.2
2022-12-31T06:35:10.095Z,14.3
2022-12-31T06:40:10.088Z,14.3
2022-12-31T06:45:10.090Z,14.3
2022-12-31T06:50:10.105Z,14.4
2022-12-31T06:55:10.107Z,14.5
2022-12-31T07:00:10.090Z,14.5
2022-12-31T07:05:10.266Z,14.5
2022-12-31T07:10:10.090Z,14.6
2022-12-31T07:15:10.083Z,14.7
2022-12-31T07:20:10.111Z,14.5
2022-12-31T07:25:10.082Z,14.4
2022-12-31T07:30:10.085Z,14.4
2022-12-31T07:35:10.090Z,14.5
2022-12-31T07:40:10.093Z,14.5
2022-12-31T07:45:10.097Z,14.5
2022-12-31T07:50:10.079Z,14.4
2022-12-31T07:55:10.088Z,14.5
2022-12-31T08:00:10.078Z,14.5
2022-12-31T08:05:10.089Z,14.6
2022-12-31T08:10:14.114Z,14.5
2022-12-31T08:15:10.090Z,14.4
2022-12-31T08:20:10.082Z,14.4
2022-12-31T08:25:10.086Z,14.6
2022-12-31T08:30:10.089Z,14.6
2022-12-31T08:35:10.094Z,14.7
2022-12-31T08:40:10.084Z,14.7
2022-12-31T08:45:10.085Z,14.7
2022-12-31T08:50:10.085Z,14.7
2022-12-31T08:55:10.095Z,14.8
2022-12-31T09:00:10.092Z,14.8
2022-12-31T09:05:10.094Z,14.8
2022-12-31T09:10:10.085Z,14.9
2022-12-31T09:15:10.092Z,14.8
2022-12-31T09:20:10.086Z,15
2022-12-31T09:25:10.088Z,14.9
2022-12-31T09:30:10.090Z,14.9
2022-12-31T09:35:10.091Z,14.9
2022-12-31T09:40:10.080Z,14.9
2022-12-31T09:45:10.087Z,15
2022-12-31T09:50:10.085Z,15.1
2022-12-31T09:55:10.083Z,15.2
2022-12-31T10:00:10.078Z,15.2
2022-12-31T10:05:10.153Z,15.3
2022-12-31T10:10:10.118Z,15.3
2022-12-31T10:15:10.093Z,15.3
2022-12-31T10:20:10.088Z,15.3
2022-12-31T10:25:10.092Z,15.2
2022-12-31T10:30:10.089Z,15.4
2022-12-31T10:35:10.091Z,15.5
2022-12-31T10:40:10.100Z,15.5
2022-12-31T10:45:10.084Z,15.6
2022-12-31T10:50:10.088Z,15.6
2022-12-31T10:55:10.085Z,15.6
2022-12-31T11:00:10.086Z,15.7
2022-12-31T11:05:10.089Z,15.8
2022-12-31T11:10:10.085Z,15.8
2022-12-31T11:15:10.098Z,15.8
2022-12-31T11:20:10.085Z,15.8
2022-12-31T11:25:10.092Z,15.9
2022-12-31T11:30:10.079Z,16
2022-12-31T11:35:10.093Z,16.2
2022-12-31T11:40:10.090Z,16.1
2022-12-31T11:45:10.086Z,16.3
2022-12-31T11:50:10.078Z,16.3
2022-12-31T11:55:10.084Z,16.2
2022-12-31T12:00:10.076Z,16.2
2022-12-31T12:05:11.185Z,16.2
2022-12-31T12:10:10.082Z,16.3
2022-12-31T12:15:10.080Z,16.3
2022-12-31T12:20:10.080Z,16.4
2022-12-31T12:25:10.092Z,16.4
2022-12-31T12:30:10.080Z,16.5
2022-12-31T12:35:10.105Z,16.5
2022-12-31T12:40:10.096Z,16.5
2022-12-31T12:45:10.085Z,16.6
2022-12-31T12:50:10.166Z,16.7
2022-12-31T12:55:10.088Z,16.7
2022-12-31T13:00:10.171Z,16.9
2022-12-31T13:05:10.089Z,16.9
2022-12-31T13:10:10.114Z,16.8
2022-12-31T13:15:10.093Z,16.9
2022-12-31T13:20:10.083Z,16.9
2022-12-31T13:25:10.081Z,16.9
2022-12-31T13:30:10.103Z,17
2022-12-31T13:35:10.086Z,16.9
2022-12-31T13:40:10.074Z,16.8
2022-12-31T13:45:10.086Z,16.7
2022-12-31T13:50:14.361Z,16.7
2022-12-31T13:55:10.084Z,16.8
2022-12-31T14:00:10.082Z,16.6
2022-12-31T14:05:10.087Z,16.6
2022-12-31T14:10:10.089Z,16.5
2022-12-31T14:15:10.084Z,16.6
2022-12-31T14:20:10.088Z,16.4
2022-12-31T14:25:10.090Z,16.4
2022-12-31T14:30:10.088Z,16.4
2022-12-31T14:35:10.092Z,16.5
2022-12-31T14:40:10.085Z,16.4
2022-12-31T14:45:10.084Z,16.5
2022-12-31T14:50:10.081Z,16.3
2022-12-31T14:55:10.093Z,16.3
2022-12-31T15:00:10.093Z,16.2
2022-12-31T15:05:10.088Z,16.2
2022-12-31T15:10:10.092Z,16.1
2022-12-31T15:15:10.092Z,16.1
2022-12-31T15:20:16.578Z,15.9
2022-12-31T15:25:10.083Z,15.9
2022-12-31T15:30:10.085Z,15.8
2022-12-31T15:35:10.088Z,15.6
2022-12-31T15:40:10.093Z,15.5
2022-12-31T15:45:10.088Z,15.4
2022-12-31T15:50:10.087Z,15.5
2022-12-31T15:55:10.096Z,15.4
2022-12-31T16:00:10.081Z,15.4
2022-12-31T16:05:10.087Z,15
2022-12-31T16:10:10.079Z,15
2022-12-31T16:15:10.099Z,14.9
2022-12-31T16:20:10.088Z,15.1
2022-12-31T16:25:29.990Z,15.1
2022-12-31T16:30:10.090Z,15.2
2022-12-31T16:35:17.587Z,14.4
2022-12-31T16:40:10.087Z,14.1
2022-12-31T16:45:10.095Z,14.6
2022-12-31T16:50:10.092Z,14.8
2022-12-31T16:55:10.107Z,14.4
2022-12-31T17:00:10.083Z,14.4
2022-12-31T17:05:10.105Z,14.4
2022-12-31T17:10:10.088Z,14.4
2022-12-31T17:15:10.092Z,14.3
2022-12-31T17:20:10.105Z,14.2
2022-12-31T17:25:10.088Z,13.9
2022-12-31T17:30:10.083Z,13.8
2022-12-31T17:35:10.103Z,13.7
2022-12-31T17:40:49.040Z,13.6
2022-12-31T17:45:10.096Z,13.7
2022-12-31T17:50:10.084Z,13.7
2022-12-31T17:55:10.091Z,13.6
2022-12-31T18:00:10.084Z,13.5
2022-12-31T18:05:10.087Z,13.4
2022-12-31T18:10:10.096Z,13.7
2022-12-31T18:15:10.089Z,13.4
2022-12-31T18:20:10.104Z,13.3
2022-12-31T18:25:10.088Z,13.3
2022-12-31T18:30:10.102Z,13.3
2022-12-31T18:35:11.716Z,13.2
2022-12-31T18:40:10.081Z,12.8
2022-12-31T18:45:10.106Z,12.7
2022-12-31T18:50:10.087Z,13.1
2022-12-31T18:55:10.078Z,13.2
2022-12-31T19:00:10.099Z,13.3
2022-12-31T19:05:10.101Z,13.3
2022-12-31T19:10:10.083Z,13.3
2022-12-31T19:15:10.099Z,13.2
2022-12-31T19:20:10.081Z,13.2
2022-12-31T19:25:10.097Z,13.2
2022-12-31T19:30:10.093Z,13
2022-12-31T19:35:10.091Z,13.4
2022-12-31T19:40:10.088Z,13.1
2022-12-31T19:45:10.080Z,13.1
2022-12-31T19:50:10.082Z,13.2
2022-12-31T19:55:10.087Z,12.9
2022-12-31T20:00:10.084Z,13
2022-12-31T20:05:10.096Z,12.8
2022-12-31T20:10:10.087Z,12.7
2022-12-31T20:15:10.082Z,12.9
2022-12-31T20:20:10.085Z,13
2022-12-31T20:25:10.093Z,13.1
2022-12-31T20:30:10.084Z,13.2
2022-12-31T20:35:10.078Z,13.5
2022-12-31T20:40:10.102Z,13.6
2022-12-31T20:45:10.103Z,13.7
2022-12-31T20:50:11.822Z,13.6
2022-12-31T20:55:10.096Z,13.5
2022-12-31T21:00:10.085Z,13.4
2022-12-31T21:05:10.227Z,13.2
2022-12-31T21:10:10.092Z,13.1
2022-12-31T21:15:10.103Z,13.1
2022-12-31T21:20:10.117Z,13
2022-12-31T21:25:10.085Z,12.9
2022-12-31T21:30:18.914Z,13
2022-12-31T21:40:10.089Z,13.4
2022-12-31T21:45:10.085Z,13.3
2022-12-31T21:50:10.107Z,13.2
2022-12-31T21:55:10.093Z,13.2
2022-12-31T22:00:40.180Z,13.4
2022-12-31T22:05:17.510Z,13.4
2022-12-31T22:10:10.096Z,13.4
2022-12-31T22:15:14.161Z,13.4
2022-12-31T22:20:26.863Z,13.3
2022-12-31T22:25:10.094Z,13.3
2022-12-31T22:30:10.089Z,13.1
2022-12-31T22:35:10.105Z,13.2
2022-12-31T22:40:10.083Z,13.2
2022-12-31T22:45:10.089Z,13
2022-12-31T22:50:10.104Z,13
2022-12-31T22:55:10.107Z,12.9
2022-12-31T23:00:10.138Z,12.6
2022-12-31T23:05:15.984Z,12.8
2022-12-31T23:10:10.091Z,12.5
2022-12-31T23:15:10.097Z,12.4
2022-12-31T23:20:10.082Z,12.4
2022-12-31T23:25:10.081Z,12.6
2022-12-31T23:30:10.091Z,12.5
2022-12-31T23:35:10.392Z,12.4
2022-12-31T23:40:10.837Z,12.1
2022-12-31T23:45:10.099Z,12.3
2022-12-31T23:50:10.097Z,12.4
2022-12-31T23:55:10.091Z,12.2
